sensor_id;sensor_type;location;lat;lon;timestamp;temperature;humidity
14357;DHT22;7262;48.764;9.166;2024-01-30T00:00:33;3.20;99.90
14357;DHT22;7262;48.764;9.166;2024-01-30T00:03:01;3.20;99.90
14357;DHT22;7262;48.764;9.166;2024-01-30T00:05:28;3.20;99.90
14357;DHT22;7262;48.764;9.166;2024-01-30T00:07:55;3.10;99.90
14357;DHT22;7262;48.764;9.166;2024-01-30T00:10:21;3.20;99.90
14357;DHT22;7262;48.764;9.166;2024-01-30T00:12:48;3.20;99.90
14357;DHT22;7262;48.764;9.166;2024-01-30T00:15:15;3.20;99.90
14357;DHT22;7262;48.764;9.166;2024-01-30T00:17:42;3.10;99.90
14357;DHT22;7262;48.764;9.166;2024-01-30T00:20:10;3.10;99.90
14357;DHT22;7262;48.764;9.166;2024-01-30T00:22:38;3.10;99.90
14357;DHT22;7262;48.764;9.166;2024-01-30T00:25:04;3.10;99.90
14357;DHT22;7262;48.764;9.166;2024-01-30T00:27:31;3.10;99.90
14357;DHT22;7262;48.764;9.166;2024-01-30T00:29:58;3.10;99.90
14357;DHT22;7262;48.764;9.166;2024-01-30T00:32:25;3.10;99.90
14357;DHT22;7262;48.764;9.166;2024-01-30T00:34:52;3.10;99.90
14357;DHT22;7262;48.764;9.166;2024-01-30T00:37:20;3.10;99.90
14357;DHT22;7262;48.764;9.166;2024-01-30T00:39:47;3.10;99.90
14357;DHT22;7262;48.764;9.166;2024-01-30T00:42:14;3.10;99.90
14357;DHT22;7262;48.764;9.166;2024-01-30T00:44:41;3.10;99.90
14357;DHT22;7262;48.764;9.166;2024-01-30T00:47:08;3.20;99.90
14357;DHT22;7262;48.764;9.166;2024-01-30T00:49:34;3.20;99.90
14357;DHT22;7262;48.764;9.166;2024-01-30T00:52:01;3.10;99.90
14357;DHT22;7262;48.764;9.166;2024-01-30T00:54:30;3.10;99.90
14357;DHT22;7262;48.764;9.166;2024-01-30T00:56:57;3.20;99.90
14357;DHT22;7262;48.764;9.166;2024-01-30T00:59:23;3.10;99.90
14357;DHT22;7262;48.764;9.166;2024-01-30T01:01:50;3.10;99.90
14357;DHT22;7262;48.764;9.166;2024-01-30T01:04:17;3.20;99.90
14357;DHT22;7262;48.764;9.166;2024-01-30T01:06:44;3.30;99.90
14357;DHT22;7262;48.764;9.166;2024-01-30T01:09:11;3.20;99.90
14357;DHT22;7262;48.764;9.166;2024-01-30T01:11:39;3.30;99.90
14357;DHT22;7262;48.764;9.166;2024-01-30T01:14:06;3.30;99.90
14357;DHT22;7262;48.764;9.166;2024-01-30T01:16:33;3.20;99.90
14357;DHT22;7262;48.764;9.166;2024-01-30T01:19:00;3.20;99.90
14357;DHT22;7262;48.764;9.166;2024-01-30T01:21:27;3.20;99.90
14357;DHT22;7262;48.764;9.166;2024-01-30T01:23:54;3.20;99.90
14357;DHT22;7262;48.764;9.166;2024-01-30T01:26:21;3.20;99.90
14357;DHT22;7262;48.764;9.166;2024-01-30T01:28:49;3.10;99.90
14357;DHT22;7262;48.764;9.166;2024-01-30T01:31:16;3.20;99.90
14357;DHT22;7262;48.764;9.166;2024-01-30T01:33:43;3.20;99.90
14357;DHT22;7262;48.764;9.166;2024-01-30T01:36:10;3.20;99.90
14357;DHT22;7262;48.764;9.166;2024-01-30T01:38:37;3.20;99.90
14357;DHT22;7262;48.764;9.166;2024-01-30T01:41:04;3.20;99.90
14357;DHT22;7262;48.764;9.166;2024-01-30T01:43:31;3.20;99.90
14357;DHT22;7262;48.764;9.166;2024-01-30T01:45:59;3.10;99.90
14357;DHT22;7262;48.764;9.166;2024-01-30T01:48:26;3.00;99.90
14357;DHT22;7262;48.764;9.166;2024-01-30T01:50:53;3.00;99.90
14357;DHT22;7262;48.764;9.166;2024-01-30T01:53:20;3.00;99.90
14357;DHT22;7262;48.764;9.166;2024-01-30T01:55:47;2.90;99.90
14357;DHT22;7262;48.764;9.166;2024-01-30T01:58:14;3.00;99.90
14357;DHT22;7262;48.764;9.166;2024-01-30T02:00:41;2.90;99.90
14357;DHT22;7262;48.764;9.166;2024-01-30T02:03:13;3.00;99.90
14357;DHT22;7262;48.764;9.166;2024-01-30T02:05:41;2.90;99.90
14357;DHT22;7262;48.764;9.166;2024-01-30T02:08:08;2.90;99.90
14357;DHT22;7262;48.764;9.166;2024-01-30T02:10:35;2.90;99.90
14357;DHT22;7262;48.764;9.166;2024-01-30T02:13:03;2.80;99.90
14357;DHT22;7262;48.764;9.166;2024-01-30T02:15:30;2.70;99.90
14357;DHT22;7262;48.764;9.166;2024-01-30T02:17:57;2.80;99.90
14357;DHT22;7262;48.764;9.166;2024-01-30T02:20:26;2.80;99.90
14357;DHT22;7262;48.764;9.166;2024-01-30T02:22:56;2.80;99.90
14357;DHT22;7262;48.764;9.166;2024-01-30T02:25:33;2.70;99.90
14357;DHT22;7262;48.764;9.166;2024-01-30T02:28:01;2.70;99.90
14357;DHT22;7262;48.764;9.166;2024-01-30T02:30:28;2.70;99.90
14357;DHT22;7262;48.764;9.166;2024-01-30T02:32:55;2.70;99.90
14357;DHT22;7262;48.764;9.166;2024-01-30T02:35:22;2.70;99.90
14357;DHT22;7262;48.764;9.166;2024-01-30T02:37:49;2.70;99.90
14357;DHT22;7262;48.764;9.166;2024-01-30T02:40:17;2.60;99.90
14357;DHT22;7262;48.764;9.166;2024-01-30T02:42:44;2.70;99.90
14357;DHT22;7262;48.764;9.166;2024-01-30T02:45:11;2.70;99.90
14357;DHT22;7262;48.764;9.166;2024-01-30T02:47:38;2.60;99.90
14357;DHT22;7262;48.764;9.166;2024-01-30T02:50:05;2.60;99.90
14357;DHT22;7262;48.764;9.166;2024-01-30T02:52:33;2.60;99.90
14357;DHT22;7262;48.764;9.166;2024-01-30T02:55:00;2.60;99.90
14357;DHT22;7262;48.764;9.166;2024-01-30T02:57:28;2.60;99.90
14357;DHT22;7262;48.764;9.166;2024-01-30T02:59:55;2.60;99.90
14357;DHT22;7262;48.764;9.166;2024-01-30T03:02:22;2.50;99.90
14357;DHT22;7262;48.764;9.166;2024-01-30T03:04:49;2.50;99.90
14357;DHT22;7262;48.764;9.166;2024-01-30T03:07:16;2.60;99.90
14357;DHT22;7262;48.764;9.166;2024-01-30T03:09:43;2.50;99.90
14357;DHT22;7262;48.764;9.166;2024-01-30T03:12:09;2.50;99.90
14357;DHT22;7262;48.764;9.166;2024-01-30T03:14:38;2.50;99.90
14357;DHT22;7262;48.764;9.166;2024-01-30T03:17:05;2.40;99.90
14357;DHT22;7262;48.764;9.166;2024-01-30T03:19:32;2.40;99.90
14357;DHT22;7262;48.764;9.166;2024-01-30T03:22:00;2.50;99.90
14357;DHT22;7262;48.764;9.166;2024-01-30T03:24:27;2.40;99.90
14357;DHT22;7262;48.764;9.166;2024-01-30T03:26:54;2.40;99.90
14357;DHT22;7262;48.764;9.166;2024-01-30T03:29:21;2.40;99.90
14357;DHT22;7262;48.764;9.166;2024-01-30T03:31:50;2.40;99.90
14357;DHT22;7262;48.764;9.166;2024-01-30T03:34:26;2.50;99.90
14357;DHT22;7262;48.764;9.166;2024-01-30T03:36:53;2.40;99.90
14357;DHT22;7262;48.764;9.166;2024-01-30T03:39:20;2.40;99.90
14357;DHT22;7262;48.764;9.166;2024-01-30T03:41:46;2.40;99.90
14357;DHT22;7262;48.764;9.166;2024-01-30T03:44:13;2.40;99.90
14357;DHT22;7262;48.764;9.166;2024-01-30T03:46:42;2.40;99.90
14357;DHT22;7262;48.764;9.166;2024-01-30T03:49:11;2.40;99.90
14357;DHT22;7262;48.764;9.166;2024-01-30T03:51:38;2.40;99.90
14357;DHT22;7262;48.764;9.166;2024-01-30T03:54:04;2.30;99.90
14357;DHT22;7262;48.764;9.166;2024-01-30T03:56:31;2.30;99.90
14357;DHT22;7262;48.764;9.166;2024-01-30T03:58:58;2.30;99.90
14357;DHT22;7262;48.764;9.166;2024-01-30T04:01:28;2.30;99.90
14357;DHT22;7262;48.764;9.166;2024-01-30T04:03:55;2.30;99.90
14357;DHT22;7262;48.764;9.166;2024-01-30T04:06:23;2.30;99.90
14357;DHT22;7262;48.764;9.166;2024-01-30T04:08:51;2.30;99.90
14357;DHT22;7262;48.764;9.166;2024-01-30T04:11:18;2.30;99.90
14357;DHT22;7262;48.764;9.166;2024-01-30T04:13:45;2.20;99.90
14357;DHT22;7262;48.764;9.166;2024-01-30T04:16:18;2.20;99.90
14357;DHT22;7262;48.764;9.166;2024-01-30T04:18:45;2.20;99.90
14357;DHT22;7262;48.764;9.166;2024-01-30T04:21:12;2.20;99.90
14357;DHT22;7262;48.764;9.166;2024-01-30T04:23:40;2.20;99.90
14357;DHT22;7262;48.764;9.166;2024-01-30T04:26:07;2.20;99.90
14357;DHT22;7262;48.764;9.166;2024-01-30T04:28:34;2.20;99.90
14357;DHT22;7262;48.764;9.166;2024-01-30T04:31:01;2.20;99.90
14357;DHT22;7262;48.764;9.166;2024-01-30T04:33:28;2.20;99.90
14357;DHT22;7262;48.764;9.166;2024-01-30T04:35:54;2.20;99.90
14357;DHT22;7262;48.764;9.166;2024-01-30T04:38:21;2.20;99.90
14357;DHT22;7262;48.764;9.166;2024-01-30T04:40:49;2.20;99.90
14357;DHT22;7262;48.764;9.166;2024-01-30T04:43:16;2.20;99.90
14357;DHT22;7262;48.764;9.166;2024-01-30T04:45:44;2.20;99.90
14357;DHT22;7262;48.764;9.166;2024-01-30T04:48:11;2.20;99.90
14357;DHT22;7262;48.764;9.166;2024-01-30T04:50:37;2.20;99.90
14357;DHT22;7262;48.764;9.166;2024-01-30T04:53:05;2.20;99.90
14357;DHT22;7262;48.764;9.166;2024-01-30T04:55:34;2.20;99.90
14357;DHT22;7262;48.764;9.166;2024-01-30T04:58:03;2.20;99.90
14357;DHT22;7262;48.764;9.166;2024-01-30T05:00:30;2.10;99.90
14357;DHT22;7262;48.764;9.166;2024-01-30T05:02:57;2.20;99.90
14357;DHT22;7262;48.764;9.166;2024-01-30T05:05:23;2.20;99.90
14357;DHT22;7262;48.764;9.166;2024-01-30T05:07:51;2.10;99.90
14357;DHT22;7262;48.764;9.166;2024-01-30T05:10:17;2.10;99.90
14357;DHT22;7262;48.764;9.166;2024-01-30T05:12:44;2.20;99.90
14357;DHT22;7262;48.764;9.166;2024-01-30T05:15:13;2.10;99.90
14357;DHT22;7262;48.764;9.166;2024-01-30T05:17:39;2.10;99.90
14357;DHT22;7262;48.764;9.166;2024-01-30T05:20:07;2.10;99.90
14357;DHT22;7262;48.764;9.166;2024-01-30T05:22:33;2.10;99.90
14357;DHT22;7262;48.764;9.166;2024-01-30T05:25:00;2.10;99.90
14357;DHT22;7262;48.764;9.166;2024-01-30T05:27:28;2.10;99.90
14357;DHT22;7262;48.764;9.166;2024-01-30T05:29:57;2.10;99.90
14357;DHT22;7262;48.764;9.166;2024-01-30T05:32:25;2.00;99.90
14357;DHT22;7262;48.764;9.166;2024-01-30T05:34:52;2.00;99.90
14357;DHT22;7262;48.764;9.166;2024-01-30T05:37:19;2.10;99.90
14357;DHT22;7262;48.764;9.166;2024-01-30T05:39:46;2.10;99.90
14357;DHT22;7262;48.764;9.166;2024-01-30T05:42:12;2.10;99.90
14357;DHT22;7262;48.764;9.166;2024-01-30T05:44:40;2.10;99.90
14357;DHT22;7262;48.764;9.166;2024-01-30T05:47:07;2.10;99.90
14357;DHT22;7262;48.764;9.166;2024-01-30T05:49:35;2.10;99.90
14357;DHT22;7262;48.764;9.166;2024-01-30T05:52:02;2.10;99.90
14357;DHT22;7262;48.764;9.166;2024-01-30T05:54:29;2.10;99.90
14357;DHT22;7262;48.764;9.166;2024-01-30T05:56:56;2.20;99.90
14357;DHT22;7262;48.764;9.166;2024-01-30T05:59:23;2.10;99.90
14357;DHT22;7262;48.764;9.166;2024-01-30T06:01:50;2.20;99.90
14357;DHT22;7262;48.764;9.166;2024-01-30T06:04:17;2.20;99.90
14357;DHT22;7262;48.764;9.166;2024-01-30T06:06:45;2.00;99.90
14357;DHT22;7262;48.764;9.166;2024-01-30T06:09:12;2.10;99.90
14357;DHT22;7262;48.764;9.166;2024-01-30T06:11:39;2.20;99.90
14357;DHT22;7262;48.764;9.166;2024-01-30T06:14:06;2.20;99.90
14357;DHT22;7262;48.764;9.166;2024-01-30T06:16:33;2.20;99.90
14357;DHT22;7262;48.764;9.166;2024-01-30T06:19:02;2.20;99.90
14357;DHT22;7262;48.764;9.166;2024-01-30T06:21:29;2.10;99.90
14357;DHT22;7262;48.764;9.166;2024-01-30T06:23:58;2.10;99.90
14357;DHT22;7262;48.764;9.166;2024-01-30T06:26:25;2.20;99.90
14357;DHT22;7262;48.764;9.166;2024-01-30T06:28:52;2.10;99.90
14357;DHT22;7262;48.764;9.166;2024-01-30T06:31:22;2.10;99.90
14357;DHT22;7262;48.764;9.166;2024-01-30T06:33:50;2.10;99.90
14357;DHT22;7262;48.764;9.166;2024-01-30T06:36:17;2.20;99.90
14357;DHT22;7262;48.764;9.166;2024-01-30T06:38:44;2.10;99.90
14357;DHT22;7262;48.764;9.166;2024-01-30T06:41:12;2.30;99.90
14357;DHT22;7262;48.764;9.166;2024-01-30T06:43:39;2.10;99.90
14357;DHT22;7262;48.764;9.166;2024-01-30T06:46:06;2.10;99.90
14357;DHT22;7262;48.764;9.166;2024-01-30T06:48:33;2.20;99.90
14357;DHT22;7262;48.764;9.166;2024-01-30T06:51:00;2.10;99.90
14357;DHT22;7262;48.764;9.166;2024-01-30T06:53:27;2.10;99.90
14357;DHT22;7262;48.764;9.166;2024-01-30T06:55:54;2.10;99.90
14357;DHT22;7262;48.764;9.166;2024-01-30T06:58:23;2.00;99.90
14357;DHT22;7262;48.764;9.166;2024-01-30T07:00:51;2.20;99.90
14357;DHT22;7262;48.764;9.166;2024-01-30T07:03:17;2.00;99.90
14357;DHT22;7262;48.764;9.166;2024-01-30T07:05:44;2.10;99.90
14357;DHT22;7262;48.764;9.166;2024-01-30T07:08:12;2.20;99.90
14357;DHT22;7262;48.764;9.166;2024-01-30T07:10:40;2.10;99.90
14357;DHT22;7262;48.764;9.166;2024-01-30T07:13:06;2.10;99.90
14357;DHT22;7262;48.764;9.166;2024-01-30T07:15:37;2.20;99.90
14357;DHT22;7262;48.764;9.166;2024-01-30T07:18:04;2.10;99.90
14357;DHT22;7262;48.764;9.166;2024-01-30T07:20:31;2.10;99.90
14357;DHT22;7262;48.764;9.166;2024-01-30T07:23:20;2.20;99.90
14357;DHT22;7262;48.764;9.166;2024-01-30T07:25:48;2.20;99.90
14357;DHT22;7262;48.764;9.166;2024-01-30T07:28:15;2.30;99.90
14357;DHT22;7262;48.764;9.166;2024-01-30T07:30:44;2.40;99.90
14357;DHT22;7262;48.764;9.166;2024-01-30T07:33:10;2.40;99.90
14357;DHT22;7262;48.764;9.166;2024-01-30T07:35:37;2.50;99.90
14357;DHT22;7262;48.764;9.166;2024-01-30T07:38:04;2.50;99.90
14357;DHT22;7262;48.764;9.166;2024-01-30T07:40:31;2.50;99.90
14357;DHT22;7262;48.764;9.166;2024-01-30T07:42:59;2.70;99.90
14357;DHT22;7262;48.764;9.166;2024-01-30T07:45:26;2.60;99.90
14357;DHT22;7262;48.764;9.166;2024-01-30T07:47:59;2.60;99.90
14357;DHT22;7262;48.764;9.166;2024-01-30T07:50:26;2.80;99.90
14357;DHT22;7262;48.764;9.166;2024-01-30T07:52:53;2.80;99.90
14357;DHT22;7262;48.764;9.166;2024-01-30T07:55:21;2.80;99.90
14357;DHT22;7262;48.764;9.166;2024-01-30T07:57:49;2.90;99.90
14357;DHT22;7262;48.764;9.166;2024-01-30T08:00:17;3.00;99.90
14357;DHT22;7262;48.764;9.166;2024-01-30T08:02:44;3.10;99.90
14357;DHT22;7262;48.764;9.166;2024-01-30T08:05:13;3.20;99.90
14357;DHT22;7262;48.764;9.166;2024-01-30T08:07:40;3.30;99.90
14357;DHT22;7262;48.764;9.166;2024-01-30T08:10:07;3.40;99.90
14357;DHT22;7262;48.764;9.166;2024-01-30T08:12:35;3.40;99.90
14357;DHT22;7262;48.764;9.166;2024-01-30T08:15:02;3.60;99.90
14357;DHT22;7262;48.764;9.166;2024-01-30T08:17:30;3.70;99.90
14357;DHT22;7262;48.764;9.166;2024-01-30T08:19:57;4.00;99.90
14357;DHT22;7262;48.764;9.166;2024-01-30T08:22:25;4.00;99.90
14357;DHT22;7262;48.764;9.166;2024-01-30T08:24:52;4.30;99.90
14357;DHT22;7262;48.764;9.166;2024-01-30T08:27:19;4.40;99.90
14357;DHT22;7262;48.764;9.166;2024-01-30T08:30:03;4.70;99.90
14357;DHT22;7262;48.764;9.166;2024-01-30T08:32:30;4.80;99.90
14357;DHT22;7262;48.764;9.166;2024-01-30T08:35:00;5.10;99.90
14357;DHT22;7262;48.764;9.166;2024-01-30T08:37:30;5.30;99.90
14357;DHT22;7262;48.764;9.166;2024-01-30T08:39:57;5.40;99.90
14357;DHT22;7262;48.764;9.166;2024-01-30T08:42:24;5.60;99.90
14357;DHT22;7262;48.764;9.166;2024-01-30T08:44:51;5.50;99.90
14357;DHT22;7262;48.764;9.166;2024-01-30T08:47:21;5.90;99.90
14357;DHT22;7262;48.764;9.166;2024-01-30T09:23:48;7.90;99.90
14357;DHT22;7262;48.764;9.166;2024-01-30T09:26:15;8.10;99.90
14357;DHT22;7262;48.764;9.166;2024-01-30T09:28:43;8.10;99.90
14357;DHT22;7262;48.764;9.166;2024-01-30T09:31:10;8.10;99.90
14357;DHT22;7262;48.764;9.166;2024-01-30T09:33:37;8.20;99.90
14357;DHT22;7262;48.764;9.166;2024-01-30T09:36:05;8.20;99.90
14357;DHT22;7262;48.764;9.166;2024-01-30T09:38:32;8.20;99.90
14357;DHT22;7262;48.764;9.166;2024-01-30T09:41:01;8.30;99.90
14357;DHT22;7262;48.764;9.166;2024-01-30T09:43:30;8.20;99.90
14357;DHT22;7262;48.764;9.166;2024-01-30T09:45:58;8.40;99.90
14357;DHT22;7262;48.764;9.166;2024-01-30T09:48:26;8.40;99.90
14357;DHT22;7262;48.764;9.166;2024-01-30T09:50:53;8.50;99.90
14357;DHT22;7262;48.764;9.166;2024-01-30T09:53:22;8.40;99.90
14357;DHT22;7262;48.764;9.166;2024-01-30T09:55:49;8.20;99.90
14357;DHT22;7262;48.764;9.166;2024-01-30T09:58:20;8.40;99.90
14357;DHT22;7262;48.764;9.166;2024-01-30T10:00:49;8.60;99.90
14357;DHT22;7262;48.764;9.166;2024-01-30T10:03:16;8.70;99.90
14357;DHT22;7262;48.764;9.166;2024-01-30T10:05:44;8.80;99.90
14357;DHT22;7262;48.764;9.166;2024-01-30T10:08:17;8.90;99.90
14357;DHT22;7262;48.764;9.166;2024-01-30T10:10:45;8.90;99.90
14357;DHT22;7262;48.764;9.166;2024-01-30T10:13:11;9.00;99.90
14357;DHT22;7262;48.764;9.166;2024-01-30T10:15:40;9.10;99.90
14357;DHT22;7262;48.764;9.166;2024-01-30T10:18:10;9.20;99.90
14357;DHT22;7262;48.764;9.166;2024-01-30T10:20:37;9.30;99.90
14357;DHT22;7262;48.764;9.166;2024-01-30T10:23:05;9.50;99.90
14357;DHT22;7262;48.764;9.166;2024-01-30T10:25:35;9.40;99.90
14357;DHT22;7262;48.764;9.166;2024-01-30T10:28:02;9.70;99.90
14357;DHT22;7262;48.764;9.166;2024-01-30T10:30:29;9.60;99.90
14357;DHT22;7262;48.764;9.166;2024-01-30T10:32:57;9.60;99.90
14357;DHT22;7262;48.764;9.166;2024-01-30T10:35:25;9.50;99.90
14357;DHT22;7262;48.764;9.166;2024-01-30T10:37:52;9.60;99.90
14357;DHT22;7262;48.764;9.166;2024-01-30T10:40:22;9.80;99.90
14357;DHT22;7262;48.764;9.166;2024-01-30T10:42:51;10.00;99.90
14357;DHT22;7262;48.764;9.166;2024-01-30T10:45:20;10.20;99.90
14357;DHT22;7262;48.764;9.166;2024-01-30T10:47:49;10.30;99.90
14357;DHT22;7262;48.764;9.166;2024-01-30T10:50:19;10.40;99.90
14357;DHT22;7262;48.764;9.166;2024-01-30T10:52:46;10.10;99.90
14357;DHT22;7262;48.764;9.166;2024-01-30T10:55:13;10.30;99.90
14357;DHT22;7262;48.764;9.166;2024-01-30T10:57:43;10.20;99.90
14357;DHT22;7262;48.764;9.166;2024-01-30T11:00:10;10.30;99.90
14357;DHT22;7262;48.764;9.166;2024-01-30T11:02:42;10.50;99.90
14357;DHT22;7262;48.764;9.166;2024-01-30T11:05:11;10.60;99.90
14357;DHT22;7262;48.764;9.166;2024-01-30T11:07:40;10.70;99.90
14357;DHT22;7262;48.764;9.166;2024-01-30T11:10:07;10.80;99.90
14357;DHT22;7262;48.764;9.166;2024-01-30T11:12:37;10.60;99.90
14357;DHT22;7262;48.764;9.166;2024-01-30T11:15:10;10.70;99.90
14357;DHT22;7262;48.764;9.166;2024-01-30T11:17:41;10.90;99.90
14357;DHT22;7262;48.764;9.166;2024-01-30T11:20:09;11.00;99.90
14357;DHT22;7262;48.764;9.166;2024-01-30T11:22:37;11.20;99.90
14357;DHT22;7262;48.764;9.166;2024-01-30T11:25:06;11.20;99.90
14357;DHT22;7262;48.764;9.166;2024-01-30T11:27:33;11.30;99.90
14357;DHT22;7262;48.764;9.166;2024-01-30T11:30:03;11.20;99.90
14357;DHT22;7262;48.764;9.166;2024-01-30T11:32:30;11.20;99.90
14357;DHT22;7262;48.764;9.166;2024-01-30T11:35:00;11.20;99.90
14357;DHT22;7262;48.764;9.166;2024-01-30T11:37:27;11.40;99.90
14357;DHT22;7262;48.764;9.166;2024-01-30T11:42:33;11.40;99.90
14357;DHT22;7262;48.764;9.166;2024-01-30T11:45:00;11.30;99.90
14357;DHT22;7262;48.764;9.166;2024-01-30T11:47:28;11.50;99.90
14357;DHT22;7262;48.764;9.166;2024-01-30T11:49:55;11.30;99.90
14357;DHT22;7262;48.764;9.166;2024-01-30T11:52:23;11.40;99.90
14357;DHT22;7262;48.764;9.166;2024-01-30T11:54:50;11.50;99.90
14357;DHT22;7262;48.764;9.166;2024-01-30T11:57:17;11.50;99.90
14357;DHT22;7262;48.764;9.166;2024-01-30T11:59:45;11.60;99.90
14357;DHT22;7262;48.764;9.166;2024-01-30T12:02:15;11.70;99.90
14357;DHT22;7262;48.764;9.166;2024-01-30T12:04:42;11.70;99.90
14357;DHT22;7262;48.764;9.166;2024-01-30T12:07:09;11.60;99.90
14357;DHT22;7262;48.764;9.166;2024-01-30T12:09:36;11.60;99.90
14357;DHT22;7262;48.764;9.166;2024-01-30T12:12:03;11.70;99.90
14357;DHT22;7262;48.764;9.166;2024-01-30T12:14:30;11.80;99.90
14357;DHT22;7262;48.764;9.166;2024-01-30T12:17:00;11.70;99.90
14357;DHT22;7262;48.764;9.166;2024-01-30T12:19:27;11.70;99.90
14357;DHT22;7262;48.764;9.166;2024-01-30T12:21:54;12.00;99.90
14357;DHT22;7262;48.764;9.166;2024-01-30T12:24:22;11.90;99.90
14357;DHT22;7262;48.764;9.166;2024-01-30T12:26:49;12.00;99.90
14357;DHT22;7262;48.764;9.166;2024-01-30T12:29:15;12.00;99.90
14357;DHT22;7262;48.764;9.166;2024-01-30T12:31:42;12.10;99.90
14357;DHT22;7262;48.764;9.166;2024-01-30T12:34:13;12.20;99.90
14357;DHT22;7262;48.764;9.166;2024-01-30T12:36:42;12.20;99.90
14357;DHT22;7262;48.764;9.166;2024-01-30T12:39:10;12.20;99.90
14357;DHT22;7262;48.764;9.166;2024-01-30T12:41:37;12.40;99.90
14357;DHT22;7262;48.764;9.166;2024-01-30T12:44:04;12.20;99.90
14357;DHT22;7262;48.764;9.166;2024-01-30T12:46:31;12.30;99.90
14357;DHT22;7262;48.764;9.166;2024-01-30T12:48:57;12.50;99.90
14357;DHT22;7262;48.764;9.166;2024-01-30T12:51:27;12.40;99.90
14357;DHT22;7262;48.764;9.166;2024-01-30T12:53:53;12.70;99.90
14357;DHT22;7262;48.764;9.166;2024-01-30T12:56:21;12.90;99.90
14357;DHT22;7262;48.764;9.166;2024-01-30T12:58:49;13.00;99.90
14357;DHT22;7262;48.764;9.166;2024-01-30T13:01:16;12.80;99.90
14357;DHT22;7262;48.764;9.166;2024-01-30T13:03:42;12.90;99.90
14357;DHT22;7262;48.764;9.166;2024-01-30T13:06:09;12.90;99.90
14357;DHT22;7262;48.764;9.166;2024-01-30T13:08:45;13.20;99.90
14357;DHT22;7262;48.764;9.166;2024-01-30T13:11:13;13.50;99.90
14357;DHT22;7262;48.764;9.166;2024-01-30T13:13:40;13.90;99.90
14357;DHT22;7262;48.764;9.166;2024-01-30T13:16:08;14.90;99.90
14357;DHT22;7262;48.764;9.166;2024-01-30T13:18:34;15.80;99.90
14357;DHT22;7262;48.764;9.166;2024-01-30T13:21:01;15.80;99.90
14357;DHT22;7262;48.764;9.166;2024-01-30T13:23:28;16.10;99.90
14357;DHT22;7262;48.764;9.166;2024-01-30T13:25:57;15.70;99.90
14357;DHT22;7262;48.764;9.166;2024-01-30T13:28:24;15.40;99.90
14357;DHT22;7262;48.764;9.166;2024-01-30T13:30:51;14.60;99.90
14357;DHT22;7262;48.764;9.166;2024-01-30T13:33:18;14.20;99.90
14357;DHT22;7262;48.764;9.166;2024-01-30T13:35:45;13.80;99.90
14357;DHT22;7262;48.764;9.166;2024-01-30T13:38:12;13.90;99.90
14357;DHT22;7262;48.764;9.166;2024-01-30T13:40:39;14.00;99.90
14357;DHT22;7262;48.764;9.166;2024-01-30T13:43:07;14.00;99.90
14357;DHT22;7262;48.764;9.166;2024-01-30T15:54:05;10.30;99.90
14357;DHT22;7262;48.764;9.166;2024-01-30T15:56:32;10.20;99.90
14357;DHT22;7262;48.764;9.166;2024-01-30T15:58:58;10.10;99.90
14357;DHT22;7262;48.764;9.166;2024-01-30T16:01:25;10.00;99.90
14357;DHT22;7262;48.764;9.166;2024-01-30T16:03:52;10.00;99.90
14357;DHT22;7262;48.764;9.166;2024-01-30T16:06:19;9.80;99.90
14357;DHT22;7262;48.764;9.166;2024-01-30T16:08:45;9.80;99.90
14357;DHT22;7262;48.764;9.166;2024-01-30T16:11:38;9.60;99.90
14357;DHT22;7262;48.764;9.166;2024-01-30T16:14:05;9.50;99.90
14357;DHT22;7262;48.764;9.166;2024-01-30T16:16:32;9.50;99.90
14357;DHT22;7262;48.764;9.166;2024-01-30T16:18:59;9.40;99.90
14357;DHT22;7262;48.764;9.166;2024-01-30T16:21:26;9.30;99.90
14357;DHT22;7262;48.764;9.166;2024-01-30T16:23:53;9.30;99.90
14357;DHT22;7262;48.764;9.166;2024-01-30T16:26:21;9.20;99.90
14357;DHT22;7262;48.764;9.166;2024-01-30T16:28:49;9.10;99.90
14357;DHT22;7262;48.764;9.166;2024-01-30T16:31:16;9.10;99.90
14357;DHT22;7262;48.764;9.166;2024-01-30T16:33:45;9.00;99.90
14357;DHT22;7262;48.764;9.166;2024-01-30T16:36:12;9.10;99.90
14357;DHT22;7262;48.764;9.166;2024-01-30T16:38:39;9.00;99.90
14357;DHT22;7262;48.764;9.166;2024-01-30T16:41:06;9.00;99.90
14357;DHT22;7262;48.764;9.166;2024-01-30T16:43:32;9.10;99.90
14357;DHT22;7262;48.764;9.166;2024-01-30T16:46:01;9.10;99.90
14357;DHT22;7262;48.764;9.166;2024-01-30T16:48:27;9.10;99.90
14357;DHT22;7262;48.764;9.166;2024-01-30T16:50:54;9.30;99.90
14357;DHT22;7262;48.764;9.166;2024-01-30T16:53:21;9.10;99.90
14357;DHT22;7262;48.764;9.166;2024-01-30T16:55:48;9.10;99.90
14357;DHT22;7262;48.764;9.166;2024-01-30T16:58:15;9.10;99.90
14357;DHT22;7262;48.764;9.166;2024-01-30T17:00:42;9.00;99.90
14357;DHT22;7262;48.764;9.166;2024-01-30T17:03:10;9.00;99.90
14357;DHT22;7262;48.764;9.166;2024-01-30T17:05:37;8.90;99.90
14357;DHT22;7262;48.764;9.166;2024-01-30T17:08:04;9.00;99.90
14357;DHT22;7262;48.764;9.166;2024-01-30T17:10:30;8.80;99.90
14357;DHT22;7262;48.764;9.166;2024-01-30T17:15:29;9.00;99.90
14357;DHT22;7262;48.764;9.166;2024-01-30T17:23:07;8.90;99.90
14357;DHT22;7262;48.764;9.166;2024-01-30T17:25:36;8.90;99.90
14357;DHT22;7262;48.764;9.166;2024-01-30T17:28:02;9.00;99.90
14357;DHT22;7262;48.764;9.166;2024-01-30T17:33:05;8.80;99.90
14357;DHT22;7262;48.764;9.166;2024-01-30T17:35:31;8.80;99.90
14357;DHT22;7262;48.764;9.166;2024-01-30T17:37:58;8.80;99.90
14357;DHT22;7262;48.764;9.166;2024-01-30T17:40:26;8.80;99.90
14357;DHT22;7262;48.764;9.166;2024-01-30T17:42:53;8.70;99.90
14357;DHT22;7262;48.764;9.166;2024-01-30T17:45:20;8.70;99.90
14357;DHT22;7262;48.764;9.166;2024-01-30T17:47:47;8.70;99.90
14357;DHT22;7262;48.764;9.166;2024-01-30T17:50:14;8.70;99.90
14357;DHT22;7262;48.764;9.166;2024-01-30T17:52:40;8.80;99.90
14357;DHT22;7262;48.764;9.166;2024-01-30T17:55:07;8.70;99.90
14357;DHT22;7262;48.764;9.166;2024-01-30T17:57:36;8.60;99.90
14357;DHT22;7262;48.764;9.166;2024-01-30T18:00:03;8.70;99.90
14357;DHT22;7262;48.764;9.166;2024-01-30T18:02:32;8.60;99.90
14357;DHT22;7262;48.764;9.166;2024-01-30T18:04:58;8.60;99.90
14357;DHT22;7262;48.764;9.166;2024-01-30T18:07:25;8.60;99.90
14357;DHT22;7262;48.764;9.166;2024-01-30T18:09:52;8.60;99.90
14357;DHT22;7262;48.764;9.166;2024-01-30T18:12:19;8.60;99.90
14357;DHT22;7262;48.764;9.166;2024-01-30T18:14:47;8.50;99.90
14357;DHT22;7262;48.764;9.166;2024-01-30T18:17:14;8.50;99.90
14357;DHT22;7262;48.764;9.166;2024-01-30T18:19:41;8.50;99.90
14357;DHT22;7262;48.764;9.166;2024-01-30T18:22:07;8.50;99.90
14357;DHT22;7262;48.764;9.166;2024-01-30T18:24:34;8.50;99.90
14357;DHT22;7262;48.764;9.166;2024-01-30T18:27:03;8.50;99.90
14357;DHT22;7262;48.764;9.166;2024-01-30T18:29:30;8.60;99.90
14357;DHT22;7262;48.764;9.166;2024-01-30T18:31:58;8.60;99.90
14357;DHT22;7262;48.764;9.166;2024-01-30T18:34:25;8.70;99.90
14357;DHT22;7262;48.764;9.166;2024-01-30T18:36:54;8.50;99.90
14357;DHT22;7262;48.764;9.166;2024-01-30T18:39:23;8.50;99.90
14357;DHT22;7262;48.764;9.166;2024-01-30T18:41:50;8.70;99.90
14357;DHT22;7262;48.764;9.166;2024-01-30T20:24:08;8.20;99.90
14357;DHT22;7262;48.764;9.166;2024-01-30T20:26:35;8.20;99.90
14357;DHT22;7262;48.764;9.166;2024-01-30T20:29:02;8.10;99.90
14357;DHT22;7262;48.764;9.166;2024-01-30T20:31:29;8.20;99.90
14357;DHT22;7262;48.764;9.166;2024-01-30T20:33:58;8.00;99.90
14357;DHT22;7262;48.764;9.166;2024-01-30T20:36:25;7.90;99.90